This is the latest recevied weather packets stored in our database for station/object K4AVM-13. If no packets are shown the sender has not sent any weather packets the latest 10 day(s).
| Time | Temp. | Humidity | Pressure | Rain* | Wind** | Luminosity | Snow |
|---|---|---|---|---|---|---|---|
| 1777678717 | 17.78° C | 43% | 1012.6 hPa | 0 mm | - | 15 W/m² | - |
| 1777678414 | 17.78° C | 44% | 1012.4 hPa | 0 mm | - | 16 W/m² | - |
| 1777678109 | 17.78° C | 44% | 1012.4 hPa | 0 mm | - | 19 W/m² | - |
| 1777677807 | 17.78° C | 43% | 1012.4 hPa | 0 mm | - | 21 W/m² | - |
| 1777677504 | 18.33° C | 43% | 1012.4 hPa | 0 mm | - | 31 W/m² | - |
| 1777677202 | 18.33° C | 43% | 1012.3 hPa | 0 mm | - | 33 W/m² | - |
| 1777676900 | 18.33° C | 41% | 1012.3 hPa | 0 mm | - | 28 W/m² | - |
| 1777676599 | 18.33° C | 40% | 1012.4 hPa | 0 mm | - | 29 W/m² | - |
| 1777676296 | 18.89° C | 39% | 1012.5 hPa | 0 mm | - | 38 W/m² | - |
| 1777675994 | 18.89° C | 39% | 1012.3 hPa | 0 mm | - | 39 W/m² | - |
| 1777675690 | 18.89° C | 38% | 1012.5 hPa | 0 mm | - | 53 W/m² | - |
| 1777675387 | 18.89° C | 40% | 1012.6 hPa | 0 mm | - | 31 W/m² | - |
| 1777675083 | 18.89° C | 39% | 1012.4 hPa | 0 mm | - | 32 W/m² | - |
| 1777674779 | 18.89° C | 38% | 1012.7 hPa | 0 mm | - | 34 W/m² | - |
| 1777674476 | 18.89° C | 38% | 1012.6 hPa | 0 mm | - | 34 W/m² | - |
| 1777674174 | 18.89° C | 38% | 1012.6 hPa | 0 mm | - | 37 W/m² | - |
| 1777673870 | 18.89° C | 37% | 1012.6 hPa | 0 mm | - | 36 W/m² | - |
| 1777673567 | 18.89° C | 39% | 1012.6 hPa | 0 mm | - | 36 W/m² | - |
| 1777673264 | 19.44° C | 37% | 1012.7 hPa | 0 mm | - | 57 W/m² | - |
| 1777672962 | 19.44° C | 38% | 1012.7 hPa | 0 mm | - | 40 W/m² | - |
| 1777672659 | 19.44° C | 37% | 1012.7 hPa | 0 mm | - | 40 W/m² | - |
| 1777672353 | 19.44° C | 38% | 1012.6 hPa | 0 mm | - | 40 W/m² | - |
| 1777672049 | 20° C | 39% | 1012.6 hPa | 0 mm | - | 41 W/m² | - |
| 1777671745 | 20° C | 37% | 1012.7 hPa | 0 mm | - | 69 W/m² | - |
| 1777671442 | 21.11° C | 35% | 1012.7 hPa | 0 mm | - | 238 W/m² | - |
* Rain latest hour (hover to see other rain measurements)
** Current wind speed in m/s (hover to see current wind gust speed)